Latest Weather Observations for Scherger

IDQ60801

Issued at 4:02 pm EST Thursday 29 January 2015 (issued every 30 minutes, with the page automatically refreshed every 10 minutes)

About weather observations | Map of weather stations | Latest weather observations for QLD | Other Formats
Station Details ID: 027075 Name: SCHERGER RAAF Lat: -12.62 Lon: 142.09 Height: 39.34 m
Data from the previous 72 hours. | See also: Recent months at Scherger
Date/Time
EST
Temp
°C
App
Temp
°C
Dew
Point
Rel
Hum
%
Delta-T
°C
Wind Press
QNH
hPa
Press
MSL
hPa
Rain
since 9 am
mm
Dir
 
Spd
km/h
Gust
km/h
Spd
kts
Gust
kts
29/04:00pm 27.8 30.7 23.2 76 3.2 SW 13 20 7 11 1003.6 1003.3 0.2
29/03:30pm 27.8 31.2 23.4 77 3.0 WSW 11 15 6 8 1003.7 1003.4 0.2
29/03:00pm 27.8 31.5 23.2 76 3.2 SW 9 15 5 8 1004.1 1003.8 0.2
29/02:30pm 27.7 30.4 22.9 75 3.3 SW 13 17 7 9 1004.0 1003.7 0.2
29/02:10pm 27.6 31.7 23.2 77 3.0 W 7 13 4 7 1004.1 1003.8 0.2
29/02:00pm 27.8 32.3 24.0 80 2.6 SW 7 11 4 6 1004.1 1003.8 0.2
29/01:30pm 27.0 31.2 23.5 81 2.4 NW 7 11 4 6 1004.9 1004.6 0.2
29/01:00pm 26.5 30.1 23.8 85 1.9 N 11 15 6 8 1005.6 1005.3 0.2
29/12:30pm 26.4 30.6 23.5 84 2.0 N 7 11 4 6 1006.0 1005.7 0.2
29/12:01pm 26.4 30.6 24.1 87 1.6 N 9 17 5 9 1006.7 1006.4 0.0
29/12:00pm 26.1 29.9 23.4 85 1.8 N 9 17 5 9 1006.7 1006.4 0.0
29/11:43am 25.9 28.7 23.0 84 2.0 N 13 19 7 10 1007.1 1006.8 0.0
29/11:30am 26.2 29.8 23.7 86 1.7 N 11 17 6 9 1007.2 1006.9 0.0
29/11:00am 25.6 27.7 23.1 86 1.7 N 17 24 9 13 1007.6 1007.3 0.0
29/10:48am 25.6 28.5 23.1 86 1.7 N 13 22 7 12 1007.6 1007.3 0.0
29/10:30am 25.2 29.2 23.1 88 1.4 N 7 17 4 9 1007.4 1007.1 0.0
29/10:16am 24.8 28.3 22.9 89 1.3 N 9 17 5 9 1007.5 1007.2 0.0
29/10:00am 24.6 27.7 22.8 90 1.2 N 11 19 6 10 1007.4 1007.1 0.0
29/09:46am 24.7 28.2 22.9 90 1.2 N 9 17 5 9 1007.4 1007.1 0.0
29/09:30am 24.5 27.8 22.6 89 1.3 N 9 17 5 9 1007.4 1007.1 0.0
29/09:00am 24.4 28.3 23.0 92 0.9 N 7 11 4 6 1007.1 1006.8 12.0
29/08:51am 24.4 28.3 23.0 92 0.9 N 7 15 4 8 1007.0 1006.7 12.0
29/08:30am 24.2 27.8 23.0 93 0.8 N 9 15 5 8 1006.9 1006.6 12.0
29/08:00am 24.0 27.5 22.8 93 0.8 NNE 9 15 5 8 1006.3 1006.0 12.0
29/07:30am 23.8 27.6 22.8 94 0.7 NNE 7 13 4 7 1005.7 1005.4 12.0
29/07:00am 23.7 27.8 22.9 95 0.5 N 6 9 3 5 1005.1 1004.8 12.0
29/06:30am 23.7 28.4 22.7 94 0.7 NNE 2 11 1 6 1004.9 1004.6 12.0
29/06:00am 23.8 28.6 22.8 94 0.7 N 2 9 1 5 1004.8 1004.5 12.0
29/05:30am 23.9 28.0 22.9 94 0.7 NNE 6 9 3 5 1004.5 1004.2 12.0
29/05:00am 24.1 28.1 23.1 94 0.7 N 7 11 4 6 1004.4 1004.1 11.8
29/04:30am 24.4 28.6 23.5 95 0.6 NNW 7 9 4 5 1004.3 1004.0 11.2
29/04:00am 24.5 30.1 23.6 95 0.6 CALM 0 7 0 4 1003.9 1003.6 11.0
29/03:30am 24.5 29.7 23.6 95 0.6 NNW 2 9 1 5 1004.0 1003.7 11.0
29/03:00am 24.3 29.0 23.3 94 0.7 NNE 4 7 2 4 1004.2 1003.9 10.8
29/02:30am 24.4 28.8 23.4 94 0.7 N 6 9 3 5 1004.5 1004.2 10.8
29/02:00am 24.6 29.8 23.6 94 0.7 N 2 9 1 5 1004.6 1004.3 10.0
29/01:30am 24.8 29.8 23.9 95 0.6 NE 4 9 2 5 1004.9 1004.6 9.6
29/01:23am 24.9 30.7 24.0 95 0.6 CALM 0 4 0 2 1005.0 1004.7 9.6
29/01:00am 25.0 29.8 24.1 95 0.6 N 6 9 3 5 1005.3 1005.0 9.4
29/12:45am 25.0 30.5 24.1 95 0.6 NNE 2 7 1 4 1005.3 1005.0 9.4
29/12:30am 24.9 30.7 24.0 95 0.6 CALM 0 0 0 0 1005.5 1005.2 9.4
 
Date/Time
EST
Temp
°C
App
Temp
°C
Dew
Point
Rel
Hum
%
Delta-T
°C
Wind Press
QNH
hPa
Press
MSL
hPa
Rain
since 9 am
mm
Dir
 
Spd
km/h
Gust
km/h
Spd
kts
Gust
kts
28/11:30pm 24.8 30.5 23.8 94 0.7 CALM 0 0 0 0 1005.8 1005.5 9.4
28/11:00pm 24.7 30.4 23.7 94 0.7 CALM 0 0 0 0 1006.0 1005.7 9.4
28/10:30pm 24.8 30.5 23.8 94 0.7 CALM 0 2 0 1 1005.8 1005.5 9.4
28/10:19pm 24.8 30.4 23.6 93 0.8 CALM 0 0 0 0 1005.8 1005.5 9.4
28/10:07pm 24.9 30.2 23.7 93 0.8 WSW 2 9 1 5 1005.8 1005.5 9.0
28/10:00pm 24.9 30.3 23.9 94 0.7 S 2 9 1 5 1005.9 1005.6 9.0
28/09:30pm 24.8 30.4 23.6 93 0.8 CALM 0 0 0 0 1005.6 1005.3 8.8
28/09:00pm 25.1 30.8 23.7 92 1.0 CALM 0 0 0 0 1005.5 1005.2 8.8
28/08:30pm 25.3 30.1 23.5 90 1.2 WNW 4 9 2 5 1005.2 1004.9 8.6
28/08:00pm 25.5 30.0 23.6 89 1.3 WNW 6 11 3 6 1004.8 1004.5 8.4
28/07:30pm 25.6 30.8 23.6 89 1.4 NW 2 11 1 6 1004.3 1004.0 8.4
28/07:00pm 25.8 31.5 23.7 88 1.4 CALM 0 0 0 0 1004.5 1004.2 8.4
28/06:30pm 26.1 31.7 23.6 86 1.7 CALM 0 0 0 0 1004.2 1003.9 8.4
28/06:00pm 26.1 31.2 23.4 85 1.8 SW 2 6 1 3 1003.9 1003.6 8.4
28/05:30pm 26.1 31.0 23.6 86 1.7 W 4 9 2 5 1003.7 1003.4 8.4
28/05:00pm 26.2 30.5 23.7 86 1.7 W 7 11 4 6 1003.5 1003.2 8.4
28/04:30pm 26.4 31.0 24.1 87 1.6 NNW 7 13 4 7 1002.9 1002.6 8.4
28/04:00pm 26.1 30.5 23.8 87 1.6 NW 7 13 4 7 1002.5 1002.2 8.4
28/03:30pm 25.7 31.0 23.7 89 1.4 WNW 2 13 1 7 1002.4 1002.1 8.4
28/03:28pm 25.9 31.5 24.3 91 1.1 WNW 2 7 1 4 1002.4 1002.1 8.4
28/03:00pm 25.7 29.8 23.9 90 1.2 NNW 9 15 5 8 1003.3 1003.0 8.4
28/02:56pm 25.7 29.9 24.1 91 1.1 NNW 9 15 5 8 1003.5 1003.2 8.2
28/02:39pm 25.7 30.2 23.9 90 1.2 NW 7 11 4 6 1003.8 1003.5 8.2
28/02:30pm 25.8 30.4 24.2 91 1.1 NW 7 11 4 6 1003.8 1003.5 8.2
28/02:10pm 25.9 30.1 24.1 90 1.2 NW 9 13 5 7 1004.0 1003.7 7.8
28/02:00pm 25.9 30.1 24.1 90 1.2 NW 9 15 5 8 1004.1 1003.8 7.8
28/01:30pm 26.0 30.7 24.0 89 1.4 WNW 6 11 3 6 1003.7 1003.4 7.8
28/01:00pm 26.1 30.8 24.3 90 1.2 W 7 11 4 6 1004.2 1003.9 7.8
28/12:30pm 26.4 31.2 24.2 88 1.5 WNW 6 11 3 6 1004.6 1004.3 7.6
28/12:00pm 26.9 31.4 24.0 84 2.0 WNW 7 13 4 7 1005.3 1005.0 7.4
28/11:30am 26.8 31.5 24.3 86 1.7 WNW 7 9 4 5 1005.8 1005.5 7.4
28/11:00am 26.4 31.6 24.8 91 1.1 NW 6 9 3 5 1005.9 1005.6 7.4
28/10:50am 26.2 31.1 24.6 91 1.1 NNW 7 11 4 6 1006.1 1005.8 7.4
28/10:30am 25.4 28.5 23.5 89 1.3 NNW 13 24 7 13 1006.0 1005.7 7.4
28/10:00am 27.2 31.6 24.5 85 1.9 N 9 17 5 9 1005.7 1005.4 0.0
28/09:31am 26.9 31.5 24.7 88 1.5 N 9 13 5 7 1006.0 1005.7 0.0
28/09:30am 26.9 31.5 24.7 88 1.5 N 9 15 5 8 1006.0 1005.7 0.0
28/09:00am 26.7 31.6 24.7 89 1.4 N 7 11 4 6 1005.9 1005.6 27.4
28/08:30am 26.1 32.2 24.5 91 1.1 CALM 0 0 0 0 1005.8 1005.5 27.4
28/08:00am 25.3 30.9 24.3 94 0.7 NW 2 7 1 4 1005.3 1005.0 27.4
28/07:40am 24.9 29.4 24.0 95 0.6 N 7 9 4 5 1005.1 1004.8 27.2
28/07:30am 24.8 29.6 24.1 96 0.5 NNW 6 9 3 5 1004.9 1004.6 27.2
28/07:00am 24.2 29.6 23.3 95 0.6 CALM 0 0 0 0 1004.3 1004.0 27.2
28/06:50am 24.1 29.5 23.2 95 0.6 CALM 0 0 0 0 1004.4 1004.1 27.2
28/06:30am 24.0 28.2 23.1 95 0.6 N 6 7 3 4 1004.2 1003.9 27.2
28/06:00am 23.9 28.8 23.0 95 0.6 NW 2 7 1 4 1003.7 1003.4 26.8
28/05:30am 23.9 29.2 23.0 95 0.6 CALM 0 0 0 0 1003.5 1003.2 26.0
28/05:00am 23.7 28.8 22.7 94 0.7 CALM 0 6 0 3 1003.5 1003.2 24.8
28/04:30am 23.7 27.6 22.5 93 0.8 SW 6 9 3 5 1003.9 1003.6 23.2
28/04:00am 24.7 27.7 22.6 88 1.4 SSW 11 17 6 9 1003.7 1003.4 10.0
28/03:30am 25.6 31.9 24.7 95 0.6 CALM 0 0 0 0 1003.7 1003.4 10.0
28/03:00am 25.6 31.9 24.7 95 0.6 CALM 0 0 0 0 1003.7 1003.4 10.0
28/02:30am 25.5 31.6 24.5 94 0.7 CALM 0 0 0 0 1003.8 1003.5 10.0
28/02:00am 25.6 31.8 24.6 94 0.7 CALM 0 0 0 0 1004.2 1003.9 10.0
28/01:30am 25.7 32.0 24.7 94 0.7 CALM 0 2 0 1 1004.6 1004.3 10.0
28/01:00am 25.7 32.0 24.7 94 0.7 CALM 0 0 0 0 1004.8 1004.5 10.0
28/12:30am 25.6 31.8 24.6 94 0.7 CALM 0 0 0 0 1005.5 1005.2 10.0
28/12:00am 25.7 32.0 24.7 94 0.7 CALM 0 0 0 0 1005.6 1005.3 10.0
 
Date/Time
EST
Temp
°C
App
Temp
°C
Dew
Point
Rel
Hum
%
Delta-T
°C
Wind Press
QNH
hPa
Press
MSL
hPa
Rain
since 9 am
mm
Dir
 
Spd
km/h
Gust
km/h
Spd
kts
Gust
kts
27/11:30pm 25.7 31.2 24.7 94 0.7 NE 4 9 2 5 1005.9 1005.6 10.0
27/11:00pm 25.7 31.8 24.5 93 0.8 CALM 0 0 0 0 1005.5 1005.2 10.0
27/10:30pm 25.8 30.8 24.8 94 0.7 N 7 9 4 5 1005.3 1005.0 10.0
27/10:00pm 26.0 32.3 24.8 93 0.8 CALM 0 0 0 0 1005.6 1005.3 9.8
27/09:30pm 26.2 31.8 24.8 92 1.0 NNE 4 7 2 4 1005.5 1005.2 9.8
27/09:00pm 26.4 31.4 24.8 91 1.1 N 7 11 4 6 1005.5 1005.2 9.6
27/08:30pm 26.7 32.1 25.1 91 1.1 N 6 7 3 4 1005.1 1004.8 9.6
27/08:00pm 26.8 33.3 25.0 90 1.3 CALM 0 0 0 0 1004.8 1004.5 9.6
27/07:30pm 27.2 33.5 24.8 87 1.7 CALM 0 0 0 0 1004.5 1004.2 9.6
27/07:00pm 27.7 34.0 24.7 84 2.1 CALM 0 0 0 0 1004.1 1003.8 9.6
27/06:30pm 28.0 33.1 24.6 82 2.4 NW 6 11 3 6 1003.6 1003.3 9.6
27/06:00pm 28.1 32.8 24.3 80 2.6 NW 7 13 4 7 1003.3 1003.0 9.6
27/05:30pm 28.3 33.0 24.3 79 2.8 NW 7 13 4 7 1003.1 1002.8 9.6
27/05:00pm 29.0 33.6 24.8 78 2.9 WNW 9 17 5 9 1002.8 1002.5 9.6
27/04:30pm 30.1 33.8 24.5 72 3.9 W 13 20 7 11 1002.7 1002.4 9.6
27/04:00pm 30.2 32.8 23.9 69 4.4 W 17 30 9 16 1002.8 1002.5 9.6
27/03:30pm 30.2 34.6 25.0 73 3.7 WNW 11 20 6 11 1003.1 1002.8 9.6
27/03:00pm 29.7 33.6 24.8 75 3.4 W 13 24 7 13 1003.5 1003.2 9.6
27/02:30pm 28.9 32.9 25.1 80 2.7 NW 13 26 7 14 1003.8 1003.5 9.6
27/02:00pm 29.5 32.7 24.4 74 3.6 WNW 15 24 8 13 1004.1 1003.8 8.0
27/01:30pm 29.4 33.3 24.9 77 3.2 WNW 13 24 7 13 1004.2 1003.9 8.0
27/01:00pm 28.8 33.4 25.4 82 2.4 WNW 11 22 6 12 1004.8 1004.5 7.8
27/12:30pm 28.2 33.3 25.6 86 1.8 NW 9 17 5 9 1005.3 1005.0 7.8
27/12:03pm 27.6 32.6 25.4 88 1.5 NW 9 13 5 7 1005.8 1005.5 7.8
27/12:00pm 27.6 32.5 25.2 87 1.7 NW 9 17 5 9 1005.9 1005.6 7.8
27/11:30am 27.3 33.4 25.7 91 1.1 NNW 4 11 2 6 1006.6 1006.3 7.8
27/11:16am 27.2 33.9 25.4 90 1.3 CALM 0 0 0 0 1006.7 1006.4 7.8
27/11:14am 27.2 34.0 25.6 91 1.1 CALM 0 0 0 0 1006.7 1006.4 7.8
27/11:02am 27.0 32.9 25.4 91 1.1 W 4 9 2 5 1006.6 1006.3 7.8
27/11:00am 27.0 33.2 25.2 90 1.3 WSW 2 7 1 4 1006.6 1006.3 7.8
27/10:30am 26.4 33.1 25.4 94 0.7 CALM 0 0 0 0 1007.0 1006.7 7.8
27/10:18am 26.0 32.5 25.0 94 0.7 CALM 0 0 0 0 1007.1 1006.8 7.8
27/10:00am 25.6 30.1 24.6 94 0.7 WSW 9 15 5 8 1007.2 1006.9 7.8
27/09:30am 25.6 31.9 24.7 95 0.6 CALM 0 0 0 0 1007.4 1007.1 5.2
27/09:12am 25.4 30.8 24.5 95 0.6 NW 4 11 2 6 1007.3 1007.0 4.8
27/09:00am 25.4 31.5 24.4 94 0.7 CALM 0 0 0 0 1007.4 1007.1 11.6
27/08:55am 25.4 31.5 24.4 94 0.7 CALM 0 0 0 0 1007.2 1006.9 10.8
27/08:40am 25.3 30.9 24.3 94 0.7 SW 2 7 1 4 1007.3 1007.0 10.2
27/08:36am 25.3 30.6 24.3 94 0.7 SSW 4 7 2 4 1007.2 1006.9 10.0
27/08:30am 25.4 31.1 24.4 94 0.7 SSW 2 7 1 4 1007.2 1006.9 9.4
27/08:19am 25.5 31.6 24.5 94 0.7 CALM 0 0 0 0 1007.2 1006.9 8.8
27/08:11am 25.5 31.7 24.6 95 0.6 CALM 0 0 0 0 1007.2 1006.9 8.6
27/08:00am 25.5 31.6 24.5 94 0.7 CALM 0 0 0 0 1007.1 1006.8 8.4
27/07:30am 25.5 31.7 24.6 95 0.6 CALM 0 0 0 0 1006.9 1006.6 7.0
27/07:19am 25.5 31.0 24.6 95 0.6 WSW 4 9 2 5 1006.8 1006.5 6.2
27/07:14am 25.6 31.5 24.7 95 0.6 W 2 9 1 5 1006.8 1006.5 6.2
27/07:00am 25.4 31.5 24.5 95 0.6 CALM 0 0 0 0 1006.5 1006.2 6.2
27/06:30am 25.2 31.2 24.3 95 0.6 CALM 0 0 0 0 1006.3 1006.0 6.2
27/06:00am 25.1 31.1 24.2 95 0.6 CALM 0 0 0 0 1005.7 1005.4 6.2
27/05:45am 25.1 31.1 24.2 95 0.6 CALM 0 0 0 0 1005.7 1005.4 6.2
27/05:30am 25.1 31.1 24.2 95 0.6 CALM 0 0 0 0 1005.9 1005.6 6.2
27/05:00am 25.1 31.1 24.2 95 0.6 CALM 0 0 0 0 1005.8 1005.5 6.2
27/04:46am 25.0 30.9 24.1 95 0.6 CALM 0 6 0 3 1005.5 1005.2 6.2
27/04:30am 25.0 30.1 24.1 95 0.6 NE 4 7 2 4 1005.4 1005.1 6.2
27/04:00am 25.0 30.8 24.0 94 0.7 CALM 0 6 0 3 1005.8 1005.5 6.2
27/03:30am 25.0 30.8 24.0 94 0.7 CALM 0 0 0 0 1005.7 1005.4 6.2
27/03:00am 25.0 30.8 24.0 94 0.7 CALM 0 0 0 0 1005.7 1005.4 6.0
27/02:30am 25.1 31.0 24.1 94 0.7 CALM 0 0 0 0 1006.3 1006.0 6.0
27/02:00am 25.0 30.8 24.0 94 0.7 CALM 0 0 0 0 1006.4 1006.1 6.0
27/01:30am 25.1 31.0 24.1 94 0.7 CALM 0 0 0 0 1007.1 1006.8 6.0
27/01:00am 24.9 30.7 23.9 94 0.7 CALM 0 0 0 0 1007.0 1006.7 6.0
27/12:30am 24.9 30.6 23.7 93 0.8 CALM 0 0 0 0 1007.5 1007.2 5.8
27/12:00am 24.9 30.5 23.5 92 1.0 CALM 0 0 0 0 1007.9 1007.6 5.8
 
Date/Time
EST
Temp
°C
App
Temp
°C
Dew
Point
Rel
Hum
%
Delta-T
°C
Wind Press
QNH
hPa
Press
MSL
hPa
Rain
since 9 am
mm
Dir
 
Spd
km/h
Gust
km/h
Spd
kts
Gust
kts
26/11:30pm 24.7 28.1 23.3 92 1.0 NNW 11 17 6 9 1008.3 1008.0 5.6
26/11:00pm 26.5 31.4 24.3 88 1.5 NNE 6 9 3 5 1008.4 1008.1 0.2
26/10:30pm 26.2 32.2 24.2 89 1.4 CALM 0 0 0 0 1008.2 1007.9 0.2
26/10:00pm 26.2 32.1 24.1 88 1.4 CALM 0 0 0 0 1007.8 1007.5 0.2
26/09:30pm 26.4 32.2 23.9 86 1.7 CALM 0 0 0 0 1007.7 1007.4 0.2
26/09:00pm 26.9 32.6 23.8 83 2.1 CALM 0 0 0 0 1007.4 1007.1 0.2
26/08:30pm 27.2 32.5 23.7 81 2.4 N 2 9 1 5 1007.1 1006.8 0.2
26/08:00pm 27.4 31.9 23.6 80 2.6 NNW 6 13 3 7 1007.1 1006.8 0.2
26/07:30pm 28.0 31.4 23.4 76 3.2 NNW 11 17 6 9 1006.8 1006.5 0.2
26/07:00pm 28.5 32.6 23.9 76 3.2 NNW 9 20 5 11 1006.8 1006.5 0.2
26/06:30pm 28.9 32.5 23.8 74 3.5 NW 11 20 6 11 1006.2 1005.9 0.2
26/06:00pm 29.3 32.4 23.5 71 4.0 NW 13 24 7 13 1006.0 1005.7 0.2
26/05:30pm 29.6 32.3 23.5 69 4.2 NW 15 28 8 15 1005.6 1005.3 0.2
26/05:00pm 29.8 33.4 23.7 70 4.2 NW 11 20 6 11 1005.8 1005.5 0.2
26/04:30pm 30.1 33.5 24.0 70 4.2 NW 13 22 7 12 1005.7 1005.4 0.2

Other Formats:

Comma delimited format used in spreadsheet applications
http://www.bom.gov.au/fwo/IDQ60801/IDQ60801.94171.axf

JavaScript Object Notation format (JSON) in row-major order
http://www.bom.gov.au/fwo/IDQ60801/IDQ60801.94171.json